Time;durP1;ratioP1;P1;durP2;ratioP2;P2;SDS_P1;SDS_P2;PMS_P1;PMS_P2;Temp;Humidity;BMP_temperature;BMP_pressure;BME280_temperature;BME280_humidity;BME280_pressure;Samples;Min_cycle;Max_cycle;Signal;HPM_P1;HPM_P2
2021/07/14 00:01:29;;;;;;;1.76;1.55;;;;;;;21.21;71.43;99944.88;;;;-58
2021/07/14 00:04:28;;;;;;;1.61;1.51;;;;;;;21.20;71.40;99938.09;;;;-58
2021/07/14 00:07:28;;;;;;;1.61;1.51;;;;;;;21.20;71.36;99930.53;;;;-58
2021/07/14 00:10:28;;;;;;;2.05;1.53;;;;;;;21.19;71.34;99921.81;;;;-58
2021/07/14 00:13:32;;;;;;;1.63;1.53;;;;;;;21.19;71.40;99910.01;;;;-58
2021/07/14 00:22:28;;;;;;;1.78;1.65;;;;;;;21.18;71.40;99915.05;;;;-58
2021/07/14 00:25:28;;;;;;;2.11;1.51;;;;;;;21.18;71.36;99920.92;;;;-58
2021/07/14 00:28:28;;;;;;;1.55;1.45;;;;;;;21.18;71.38;99921.25;;;;-58
2021/07/14 00:31:28;;;;;;;1.57;1.47;;;;;;;21.17;71.31;99908.30;;;;-58
2021/07/14 00:34:28;;;;;;;1.66;1.56;;;;;;;21.17;71.39;99893.41;;;;-58
2021/07/14 00:37:28;;;;;;;1.53;1.43;;;;;;;21.17;71.37;99882.08;;;;-58
2021/07/14 00:40:28;;;;;;;1.50;1.40;;;;;;;21.17;71.38;99881.69;;;;-58
2021/07/14 00:43:28;;;;;;;1.60;1.50;;;;;;;21.16;71.40;99879.13;;;;-58
2021/07/14 00:46:28;;;;;;;1.59;1.46;;;;;;;21.16;71.38;99871.65;;;;-58
2021/07/14 00:49:28;;;;;;;1.61;1.51;;;;;;;21.16;71.36;99860.06;;;;-58
2021/07/14 00:52:28;;;;;;;1.65;1.49;;;;;;;21.15;71.31;99847.70;;;;-58
2021/07/14 00:55:28;;;;;;;1.72;1.40;;;;;;;21.16;71.36;99854.46;;;;-58
2021/07/14 00:58:28;;;;;;;1.57;1.47;;;;;;;21.15;71.28;99863.77;;;;-58
2021/07/14 01:01:28;;;;;;;2.43;1.50;;;;;;;21.15;71.43;99872.31;;;;-58
2021/07/14 01:04:28;;;;;;;1.59;1.49;;;;;;;21.15;71.29;99883.24;;;;-58
2021/07/14 01:07:28;;;;;;;1.60;1.50;;;;;;;21.14;71.37;99890.72;;;;-58
2021/07/14 01:10:28;;;;;;;1.59;1.49;;;;;;;21.14;71.36;99894.14;;;;-58
2021/07/14 01:13:28;;;;;;;1.71;1.61;;;;;;;21.14;71.32;99886.17;;;;-58
2021/07/14 01:16:28;;;;;;;1.50;1.40;;;;;;;21.14;71.38;99869.80;;;;-58
2021/07/14 01:19:28;;;;;;;1.94;1.59;;;;;;;21.13;71.40;99860.85;;;;-58
2021/07/14 01:22:28;;;;;;;1.69;1.58;;;;;;;21.13;71.33;99856.61;;;;-58
2021/07/14 01:25:28;;;;;;;1.60;1.50;;;;;;;21.13;71.36;99849.94;;;;-58
2021/07/14 01:28:28;;;;;;;1.51;1.41;;;;;;;21.13;71.32;99854.33;;;;-58
2021/07/14 01:31:28;;;;;;;1.59;1.49;;;;;;;21.12;71.41;99871.84;;;;-58
2021/07/14 01:34:28;;;;;;;1.63;1.53;;;;;;;21.12;71.38;99875.84;;;;-58
2021/07/14 01:37:28;;;;;;;1.58;1.48;;;;;;;21.12;71.27;99883.34;;;;-58
2021/07/14 01:40:28;;;;;;;1.81;1.42;;;;;;;21.11;71.32;99881.15;;;;-58
2021/07/14 01:43:28;;;;;;;1.99;1.45;;;;;;;21.11;71.29;99882.62;;;;-58
2021/07/14 01:46:28;;;;;;;1.43;1.33;;;;;;;21.11;71.27;99892.65;;;;-58
2021/07/14 01:49:29;;;;;;;1.87;1.50;;;;;;;21.10;71.26;99893.94;;;;-58
2021/07/14 01:52:28;;;;;;;1.50;1.40;;;;;;;21.11;71.32;99886.70;;;;-58
2021/07/14 01:55:28;;;;;;;1.60;1.50;;;;;;;21.10;71.25;99877.23;;;;-58
2021/07/14 01:58:28;;;;;;;1.50;1.40;;;;;;;21.11;71.26;99873.51;;;;-58
2021/07/14 02:01:29;;;;;;;2.19;1.50;;;;;;;21.09;71.33;99874.48;;;;-58
2021/07/14 02:04:31;;;;;;;1.68;1.57;;;;;;;21.10;71.33;99886.28;;;;-58
2021/07/14 02:07:28;;;;;;;1.49;1.39;;;;;;;21.10;71.34;99896.16;;;;-58
2021/07/14 02:10:28;;;;;;;1.47;1.37;;;;;;;21.08;71.26;99881.59;;;;-58
2021/07/14 02:13:28;;;;;;;1.50;1.40;;;;;;;21.09;71.26;99879.55;;;;-58
2021/07/14 02:16:28;;;;;;;1.81;1.65;;;;;;;21.08;71.29;99882.47;;;;-58
2021/07/14 02:19:28;;;;;;;1.76;1.51;;;;;;;21.09;71.25;99886.40;;;;-58
2021/07/14 02:22:28;;;;;;;1.79;1.50;;;;;;;21.09;71.26;99902.70;;;;-58
2021/07/14 02:25:28;;;;;;;1.60;1.50;;;;;;;21.09;71.28;99913.03;;;;-58
2021/07/14 02:28:28;;;;;;;1.56;1.44;;;;;;;21.08;71.28;99917.27;;;;-58
2021/07/14 02:31:28;;;;;;;1.69;1.59;;;;;;;21.08;71.30;99927.28;;;;-58
2021/07/14 02:34:28;;;;;;;1.42;1.32;;;;;;;21.08;71.31;99926.47;;;;-58
2021/07/14 02:37:28;;;;;;;1.51;1.41;;;;;;;21.07;71.25;99918.83;;;;-58
2021/07/14 02:40:28;;;;;;;1.60;1.50;;;;;;;21.07;71.35;99916.71;;;;-58
2021/07/14 02:43:28;;;;;;;1.71;1.50;;;;;;;21.07;71.31;99918.92;;;;-58
2021/07/14 02:46:30;;;;;;;1.50;1.40;;;;;;;21.07;71.30;99913.05;;;;-58
2021/07/14 02:49:28;;;;;;;1.60;1.50;;;;;;;21.07;71.29;99902.86;;;;-58
2021/07/14 02:52:28;;;;;;;1.71;1.49;;;;;;;21.07;71.30;99898.22;;;;-58
2021/07/14 02:55:28;;;;;;;1.56;1.46;;;;;;;21.06;71.30;99896.02;;;;-58
2021/07/14 02:58:28;;;;;;;1.50;1.40;;;;;;;21.06;71.28;99891.61;;;;-58
2021/07/14 03:01:28;;;;;;;1.48;1.38;;;;;;;21.05;71.37;99889.77;;;;-58
2021/07/14 03:04:28;;;;;;;1.52;1.42;;;;;;;21.05;71.34;99889.76;;;;-58
2021/07/14 03:07:28;;;;;;;1.57;1.47;;;;;;;21.05;71.21;99885.61;;;;-58
2021/07/14 03:10:28;;;;;;;1.49;1.39;;;;;;;21.05;71.33;99882.52;;;;-58
2021/07/14 03:13:28;;;;;;;1.71;1.51;;;;;;;21.04;71.32;99880.17;;;;-58
2021/07/14 03:16:28;;;;;;;1.50;1.40;;;;;;;21.05;71.34;99884.80;;;;-56
2021/07/14 03:19:28;;;;;;;1.64;1.54;;;;;;;21.05;71.32;99884.70;;;;-56
2021/07/14 03:22:28;;;;;;;1.45;1.34;;;;;;;21.05;71.30;99874.78;;;;-55
2021/07/14 03:25:28;;;;;;;1.81;1.45;;;;;;;21.04;71.20;99871.52;;;;-57
2021/07/14 03:28:30;;;;;;;1.96;1.47;;;;;;;21.04;71.27;99866.95;;;;-57
2021/07/14 03:31:29;;;;;;;1.71;1.50;;;;;;;21.04;71.27;99867.14;;;;-56
2021/07/14 03:34:28;;;;;;;1.50;1.40;;;;;;;21.03;71.31;99872.43;;;;-57
2021/07/14 03:37:28;;;;;;;1.75;1.62;;;;;;;21.04;71.32;99871.77;;;;-56
2021/07/14 03:40:28;;;;;;;1.69;1.59;;;;;;;21.03;71.29;99861.60;;;;-57
2021/07/14 03:43:28;;;;;;;1.70;1.60;;;;;;;21.03;71.33;99860.54;;;;-57
2021/07/14 03:46:28;;;;;;;1.68;1.58;;;;;;;21.03;71.28;99873.82;;;;-56
2021/07/14 03:49:28;;;;;;;1.50;1.40;;;;;;;21.03;71.33;99887.27;;;;-55
2021/07/14 03:52:28;;;;;;;1.47;1.37;;;;;;;21.02;71.30;99886.11;;;;-56
2021/07/14 03:55:28;;;;;;;1.50;1.40;;;;;;;21.01;71.33;99890.77;;;;-56
2021/07/14 03:58:28;;;;;;;1.45;1.35;;;;;;;21.02;71.37;99886.45;;;;-57
2021/07/14 04:01:28;;;;;;;1.64;1.54;;;;;;;21.01;71.28;99887.44;;;;-55
2021/07/14 04:04:28;;;;;;;1.57;1.47;;;;;;;21.01;71.36;99890.62;;;;-56
2021/07/14 04:07:28;;;;;;;1.64;1.54;;;;;;;21.00;71.31;99894.55;;;;-56
2021/07/14 04:10:28;;;;;;;1.50;1.40;;;;;;;21.01;71.33;99904.39;;;;-56
2021/07/14 04:13:28;;;;;;;1.58;1.48;;;;;;;21.01;71.30;99905.05;;;;-57
2021/07/14 04:16:29;;;;;;;1.46;1.36;;;;;;;21.00;71.39;99902.45;;;;-57
2021/07/14 04:19:28;;;;;;;1.50;1.40;;;;;;;21.00;71.38;99905.06;;;;-56
2021/07/14 04:22:28;;;;;;;1.57;1.47;;;;;;;21.00;71.31;99909.30;;;;-56
2021/07/14 04:25:28;;;;;;;1.51;1.41;;;;;;;20.99;71.39;99908.97;;;;-57
2021/07/14 04:28:28;;;;;;;3.93;1.55;;;;;;;20.99;71.63;99909.11;;;;-57
2021/07/14 04:31:28;;;;;;;4.29;1.98;;;;;;;20.99;71.57;99907.00;;;;-58
2021/07/14 04:34:28;;;;;;;1.73;1.63;;;;;;;21.00;71.52;99902.69;;;;-56
2021/07/14 04:37:28;;;;;;;2.06;1.61;;;;;;;20.99;71.38;99898.69;;;;-55
2021/07/14 04:40:28;;;;;;;2.08;1.60;;;;;;;20.99;71.47;99899.42;;;;-56
2021/07/14 04:43:29;;;;;;;2.58;1.40;;;;;;;21.00;71.39;99903.59;;;;-58
2021/07/14 04:46:28;;;;;;;1.70;1.57;;;;;;;21.00;71.51;99906.69;;;;-57
2021/07/14 04:49:28;;;;;;;1.41;1.31;;;;;;;20.99;71.40;99910.50;;;;-57
2021/07/14 04:52:28;;;;;;;1.60;1.50;;;;;;;20.99;71.39;99913.34;;;;-57
2021/07/14 04:55:28;;;;;;;1.50;1.40;;;;;;;20.99;71.36;99912.63;;;;-57
2021/07/14 04:58:28;;;;;;;1.78;1.50;;;;;;;20.99;71.43;99910.03;;;;-58
2021/07/14 05:01:28;;;;;;;1.67;1.48;;;;;;;20.98;71.39;99908.16;;;;-56
2021/07/14 05:04:28;;;;;;;1.40;1.30;;;;;;;20.99;71.39;99912.63;;;;-62
2021/07/14 05:07:30;;;;;;;1.65;1.55;;;;;;;20.98;71.40;99905.97;;;;-63
2021/07/14 05:10:31;;;;;;;1.53;1.40;;;;;;;20.99;71.38;99907.34;;;;-63
2021/07/14 05:13:28;;;;;;;2.29;1.62;;;;;;;20.98;71.37;99913.05;;;;-62
2021/07/14 05:16:28;;;;;;;1.61;1.50;;;;;;;20.98;71.33;99908.09;;;;-62
2021/07/14 05:19:28;;;;;;;1.53;1.35;;;;;;;20.98;71.33;99904.34;;;;-64
2021/07/14 05:22:28;;;;;;;1.50;1.40;;;;;;;20.98;71.32;99895.70;;;;-63
2021/07/14 05:25:28;;;;;;;1.71;1.40;;;;;;;20.98;71.40;99891.63;;;;-63
2021/07/14 05:28:28;;;;;;;4.73;1.77;;;;;;;20.96;71.59;99894.00;;;;-63
2021/07/14 05:31:28;;;;;;;3.50;2.45;;;;;;;20.93;71.28;99892.65;;;;-53
2021/07/14 05:34:28;;;;;;;6.30;2.70;;;;;;;20.90;71.37;99886.58;;;;-59
2021/07/14 05:37:28;;;;;;;5.39;2.80;;;;;;;20.87;71.30;99881.04;;;;-57
2021/07/14 05:40:28;;;;;;;6.37;2.82;;;;;;;20.92;71.26;99893.30;;;;-63
2021/07/14 05:43:28;;;;;;;8.97;2.87;;;;;;;20.93;71.65;99898.42;;;;-59
2021/07/14 05:46:28;;;;;;;4.27;2.18;;;;;;;20.96;71.67;99898.47;;;;-59
2021/07/14 05:49:28;;;;;;;8.42;2.53;;;;;;;20.98;71.64;99897.80;;;;-55
2021/07/14 05:52:28;;;;;;;4.35;2.41;;;;;;;20.99;71.67;99898.69;;;;-56
2021/07/14 05:55:28;;;;;;;3.08;2.27;;;;;;;20.99;71.70;99898.94;;;;-56
2021/07/14 05:58:28;;;;;;;5.11;2.30;;;;;;;20.99;71.69;99895.68;;;;-57
2021/07/14 06:01:28;;;;;;;3.42;2.23;;;;;;;20.99;71.70;99909.04;;;;-57
2021/07/14 06:04:28;;;;;;;5.58;2.30;;;;;;;20.99;71.65;99910.52;;;;-57
2021/07/14 06:07:28;;;;;;;4.25;2.13;;;;;;;20.99;71.66;99909.53;;;;-57
2021/07/14 06:10:28;;;;;;;2.79;2.34;;;;;;;20.99;71.68;99903.26;;;;-56
2021/07/14 06:13:28;;;;;;;4.57;2.28;;;;;;;20.99;71.66;99895.28;;;;-56
2021/07/14 06:16:28;;;;;;;3.25;2.29;;;;;;;20.98;71.64;99893.50;;;;-56
2021/07/14 06:19:28;;;;;;;3.07;2.31;;;;;;;20.98;71.56;99893.66;;;;-53
2021/07/14 06:22:29;;;;;;;2.47;2.26;;;;;;;20.99;71.62;99905.47;;;;-53
2021/07/14 06:25:28;;;;;;;3.28;2.21;;;;;;;20.98;71.56;99913.53;;;;-54
2021/07/14 06:28:28;;;;;;;4.14;2.25;;;;;;;20.98;71.53;99908.39;;;;-54
2021/07/14 06:31:28;;;;;;;4.12;2.22;;;;;;;20.98;71.55;99912.81;;;;-54
2021/07/14 06:34:28;;;;;;;3.39;2.10;;;;;;;20.98;71.50;99908.87;;;;-53
2021/07/14 06:37:28;;;;;;;2.98;2.25;;;;;;;20.98;71.50;99900.25;;;;-54
2021/07/14 06:40:28;;;;;;;3.95;2.47;;;;;;;20.98;71.46;99903.18;;;;-53
2021/07/14 06:43:41;;;;;;;2.78;1.96;;;;;;;20.97;71.37;99902.54;;;;-53
2021/07/14 06:46:28;;;;;;;3.35;2.03;;;;;;;20.97;71.51;99901.25;;;;-53
2021/07/14 06:49:28;;;;;;;5.10;2.18;;;;;;;20.96;71.40;99904.12;;;;-53
2021/07/14 06:52:28;;;;;;;3.00;2.13;;;;;;;20.96;71.49;99905.08;;;;-53
2021/07/14 06:55:28;;;;;;;2.83;2.02;;;;;;;20.95;71.42;99906.05;;;;-53
2021/07/14 06:58:28;;;;;;;2.22;2.02;;;;;;;20.96;71.40;99903.20;;;;-54
2021/07/14 07:01:28;;;;;;;2.66;2.27;;;;;;;20.96;71.61;99902.40;;;;-49
2021/07/14 07:04:28;;;;;;;6.61;2.11;;;;;;;20.97;71.54;99903.91;;;;-60
2021/07/14 07:07:28;;;;;;;7.33;2.17;;;;;;;20.99;71.68;99908.97;;;;-52
2021/07/14 07:10:28;;;;;;;2.88;2.11;;;;;;;21.01;71.72;99910.00;;;;-51
2021/07/14 07:13:28;;;;;;;13.32;2.22;;;;;;;21.03;71.88;99905.75;;;;-52
2021/07/14 07:16:28;;;;;;;2.24;2.04;;;;;;;21.04;71.86;99908.02;;;;-56
2021/07/14 07:19:28;;;;;;;4.10;2.14;;;;;;;21.05;71.85;99907.03;;;;-49
2021/07/14 07:22:28;;;;;;;2.43;2.11;;;;;;;21.06;71.98;99903.94;;;;-51
2021/07/14 07:25:28;;;;;;;4.76;2.15;;;;;;;21.06;71.83;99902.96;;;;-52
2021/07/14 07:28:33;;;;;;;2.67;2.04;;;;;;;21.07;71.95;99905.97;;;;-51
2021/07/14 07:31:28;;;;;;;3.88;2.15;;;;;;;21.08;71.94;99901.37;;;;-49
2021/07/14 07:34:28;;;;;;;2.87;1.94;;;;;;;21.09;71.85;99906.10;;;;-49
2021/07/14 07:37:28;;;;;;;2.25;1.94;;;;;;;21.10;71.93;99905.52;;;;-50
2021/07/14 07:40:28;;;;;;;2.29;1.97;;;;;;;21.12;71.97;99913.16;;;;-50
2021/07/14 07:43:29;;;;;;;3.41;2.15;;;;;;;21.12;71.99;99920.72;;;;-51
2021/07/14 07:46:28;;;;;;;2.87;2.00;;;;;;;21.13;72.06;99927.09;;;;-49
2021/07/14 07:49:28;;;;;;;2.73;1.90;;;;;;;21.14;71.91;99932.60;;;;-52
2021/07/14 07:52:28;;;;;;;4.40;1.95;;;;;;;21.16;71.90;99933.34;;;;-51
2021/07/14 07:55:28;;;;;;;2.99;2.09;;;;;;;21.16;72.08;99927.38;;;;-54
2021/07/14 07:58:28;;;;;;;4.68;2.02;;;;;;;21.17;71.92;99929.91;;;;-52
2021/07/14 08:01:28;;;;;;;3.71;2.06;;;;;;;21.17;72.15;99935.03;;;;-55
2021/07/14 08:04:28;;;;;;;5.51;2.14;;;;;;;21.18;72.02;99938.69;;;;-53
2021/07/14 08:07:28;;;;;;;3.32;2.09;;;;;;;21.20;72.04;99939.66;;;;-54
2021/07/14 08:10:28;;;;;;;4.87;2.01;;;;;;;21.21;71.99;99944.95;;;;-53
2021/07/14 08:13:28;;;;;;;3.67;2.11;;;;;;;21.22;71.96;99949.99;;;;-51
2021/07/14 08:16:28;;;;;;;5.03;2.14;;;;;;;21.23;71.96;99955.34;;;;-53
2021/07/14 08:19:28;;;;;;;7.01;2.07;;;;;;;21.23;71.98;99956.42;;;;-52
2021/07/14 08:22:28;;;;;;;4.17;1.95;;;;;;;21.24;72.01;99953.14;;;;-58
2021/07/14 08:25:28;;;;;;;3.61;2.11;;;;;;;21.24;72.08;99947.20;;;;-51
2021/07/14 08:28:28;;;;;;;4.54;2.13;;;;;;;21.24;72.07;99945.96;;;;-55
2021/07/14 08:31:28;;;;;;;4.71;1.90;;;;;;;21.25;72.01;99941.73;;;;-50
2021/07/14 08:34:28;;;;;;;2.07;1.77;;;;;;;21.26;72.06;99935.11;;;;-51
2021/07/14 08:37:28;;;;;;;2.13;1.90;;;;;;;21.27;72.06;99935.50;;;;-57
2021/07/14 08:40:28;;;;;;;3.97;2.20;;;;;;;21.26;72.14;99933.23;;;;-60
2021/07/14 08:43:29;;;;;;;4.72;2.00;;;;;;;21.27;72.05;99935.17;;;;-61
2021/07/14 08:46:28;;;;;;;3.05;1.90;;;;;;;21.27;71.97;99933.00;;;;-59
2021/07/14 08:49:28;;;;;;;4.44;1.95;;;;;;;21.29;72.06;99938.52;;;;-61
2021/07/14 08:52:28;;;;;;;4.43;1.93;;;;;;;21.30;72.02;99939.06;;;;-51
2021/07/14 08:55:28;;;;;;;2.79;1.78;;;;;;;21.32;72.00;99940.37;;;;-53
2021/07/14 08:58:28;;;;;;;3.48;1.69;;;;;;;21.30;71.67;99941.34;;;;-52
2021/07/14 09:01:28;;;;;;;5.19;1.89;;;;;;;21.30;71.89;99948.77;;;;-52
2021/07/14 09:04:28;;;;;;;3.76;2.09;;;;;;;21.29;71.96;99951.64;;;;-52
2021/07/14 09:07:28;;;;;;;2.27;1.83;;;;;;;21.29;71.82;99953.01;;;;-52
2021/07/14 09:10:28;;;;;;;7.34;2.19;;;;;;;21.28;71.82;99957.34;;;;-55
2021/07/14 09:13:28;;;;;;;3.75;1.87;;;;;;;21.28;71.80;99959.72;;;;-55
2021/07/14 09:16:28;;;;;;;3.63;1.97;;;;;;;21.27;71.81;99960.38;;;;-54
2021/07/14 09:19:28;;;;;;;2.30;2.02;;;;;;;21.26;71.76;99964.13;;;;-54
2021/07/14 09:22:30;;;;;;;4.85;1.89;;;;;;;21.26;71.71;99965.84;;;;-54
2021/07/14 09:25:28;;;;;;;3.97;1.78;;;;;;;21.26;71.64;99973.83;;;;-54
2021/07/14 09:28:28;;;;;;;2.36;1.76;;;;;;;21.26;71.64;99979.05;;;;-54
2021/07/14 09:31:28;;;;;;;2.52;1.80;;;;;;;21.25;71.67;99978.15;;;;-54
2021/07/14 09:34:28;;;;;;;2.48;1.83;;;;;;;21.25;71.63;99983.20;;;;-54
2021/07/14 09:37:28;;;;;;;2.87;1.95;;;;;;;21.24;71.61;99987.03;;;;-54
2021/07/14 09:40:28;;;;;;;2.54;1.90;;;;;;;21.24;71.50;99988.83;;;;-54
2021/07/14 09:43:28;;;;;;;2.01;1.82;;;;;;;21.24;71.51;99993.56;;;;-63
2021/07/14 09:46:30;;;;;;;2.02;1.83;;;;;;;21.23;71.46;99993.58;;;;-55
2021/07/14 09:49:28;;;;;;;6.31;1.96;;;;;;;21.23;71.46;99999.70;;;;-55
2021/07/14 09:52:28;;;;;;;2.03;1.83;;;;;;;21.23;71.44;100001.73;;;;-55
2021/07/14 09:55:28;;;;;;;1.93;1.75;;;;;;;21.23;71.43;100007.66;;;;-63
2021/07/14 09:58:28;;;;;;;2.79;1.98;;;;;;;21.22;71.50;100017.20;;;;-63
2021/07/14 10:01:28;;;;;;;2.16;1.71;;;;;;;21.22;71.42;100023.65;;;;-63
2021/07/14 10:04:30;;;;;;;1.89;1.70;;;;;;;21.22;71.42;100028.78;;;;-65
2021/07/14 10:07:30;;;;;;;5.72;1.97;;;;;;;21.21;71.44;100026.03;;;;-63
2021/07/14 10:10:28;;;;;;;2.01;1.81;;;;;;;21.22;71.42;100028.55;;;;-55
2021/07/14 10:13:28;;;;;;;1.99;1.79;;;;;;;21.22;71.41;100034.98;;;;-54
2021/07/14 10:16:28;;;;;;;2.91;1.71;;;;;;;21.21;71.38;100033.03;;;;-55
2021/07/14 10:19:28;;;;;;;3.77;1.64;;;;;;;21.22;71.35;100034.48;;;;-55
2021/07/14 10:22:28;;;;;;;1.72;1.60;;;;;;;21.22;71.32;100034.74;;;;-55
2021/07/14 10:25:28;;;;;;;2.03;1.78;;;;;;;21.22;71.35;100033.44;;;;-55
2021/07/14 10:28:28;;;;;;;3.18;1.80;;;;;;;21.21;71.33;100034.03;;;;-55
2021/07/14 10:31:28;;;;;;;1.81;1.71;;;;;;;21.20;71.38;100033.52;;;;-55
2021/07/14 10:34:28;;;;;;;1.79;1.67;;;;;;;21.20;71.32;100035.96;;;;-63
2021/07/14 10:37:28;;;;;;;2.48;1.76;;;;;;;21.20;71.29;100030.51;;;;-64
2021/07/14 10:40:28;;;;;;;2.33;1.85;;;;;;;21.19;71.31;100023.84;;;;-64
2021/07/14 10:43:28;;;;;;;2.33;1.70;;;;;;;21.20;71.30;100021.95;;;;-64
2021/07/14 10:46:29;;;;;;;2.73;1.73;;;;;;;21.19;71.27;100018.63;;;;-64
2021/07/14 10:49:28;;;;;;;2.35;1.63;;;;;;;21.18;71.23;100016.98;;;;-64
2021/07/14 10:52:28;;;;;;;2.23;1.81;;;;;;;21.18;71.19;100011.44;;;;-64
2021/07/14 10:55:28;;;;;;;1.92;1.67;;;;;;;21.19;71.30;100008.78;;;;-64
2021/07/14 10:58:28;;;;;;;1.89;1.69;;;;;;;21.18;71.25;100004.36;;;;-63
2021/07/14 11:01:28;;;;;;;1.89;1.63;;;;;;;21.19;71.26;100003.16;;;;-63
2021/07/14 11:04:28;;;;;;;2.60;1.79;;;;;;;21.18;71.31;99999.55;;;;-63
2021/07/14 11:07:28;;;;;;;2.18;1.67;;;;;;;21.18;71.18;99996.95;;;;-65
2021/07/14 11:10:28;;;;;;;1.69;1.59;;;;;;;21.17;71.28;99998.03;;;;-64
2021/07/14 11:13:29;;;;;;;1.69;1.59;;;;;;;21.18;71.23;100002.91;;;;-54
2021/07/14 11:16:28;;;;;;;1.81;1.64;;;;;;;21.17;71.16;100007.72;;;;-55
2021/07/14 11:19:28;;;;;;;2.25;1.75;;;;;;;21.17;71.28;100012.22;;;;-55
2021/07/14 11:22:28;;;;;;;2.16;1.63;;;;;;;21.17;71.20;100016.05;;;;-55
2021/07/14 11:25:28;;;;;;;1.87;1.61;;;;;;;21.17;71.26;100016.61;;;;-54
2021/07/14 11:28:28;;;;;;;1.69;1.59;;;;;;;21.18;71.15;100019.53;;;;-54
2021/07/14 11:31:28;;;;;;;2.55;1.71;;;;;;;21.16;71.20;100019.94;;;;-55
2021/07/14 11:34:28;;;;;;;1.73;1.56;;;;;;;21.16;71.20;100018.39;;;;-54
2021/07/14 11:37:28;;;;;;;1.61;1.51;;;;;;;21.17;71.21;100017.59;;;;-55
2021/07/14 11:40:28;;;;;;;1.92;1.67;;;;;;;21.16;71.20;100012.92;;;;-63
2021/07/14 11:43:28;;;;;;;2.27;1.70;;;;;;;21.15;71.12;100013.11;;;;-63
2021/07/14 11:46:29;;;;;;;1.70;1.60;;;;;;;21.15;71.23;100010.76;;;;-63
2021/07/14 11:49:30;;;;;;;3.07;1.71;;;;;;;21.15;71.20;100008.88;;;;-63
2021/07/14 11:52:28;;;;;;;2.76;1.83;;;;;;;21.15;71.21;100001.72;;;;-56
2021/07/14 11:55:28;;;;;;;2.20;1.70;;;;;;;21.17;71.25;100001.14;;;;-59
2021/07/14 11:58:28;;;;;;;1.85;1.51;;;;;;;21.18;71.35;100000.54;;;;-60
2021/07/14 12:01:28;;;;;;;1.75;1.65;;;;;;;21.19;71.42;100002.73;;;;-52
2021/07/14 12:04:28;;;;;;;2.51;1.60;;;;;;;21.21;71.50;100000.45;;;;-53
2021/07/14 12:07:28;;;;;;;3.70;1.75;;;;;;;21.22;71.55;99997.26;;;;-52
2021/07/14 12:10:28;;;;;;;1.71;1.61;;;;;;;21.22;71.61;99993.42;;;;-52
2021/07/14 12:13:28;;;;;;;2.21;1.70;;;;;;;21.23;71.70;99997.64;;;;-55
2021/07/14 12:16:28;;;;;;;1.65;1.55;;;;;;;21.23;71.67;99993.17;;;;-59
2021/07/14 12:19:28;;;;;;;2.15;1.55;;;;;;;21.25;71.73;99990.77;;;;-58
2021/07/14 12:22:28;;;;;;;2.11;1.71;;;;;;;21.25;71.70;99988.18;;;;-53
2021/07/14 12:25:28;;;;;;;1.91;1.71;;;;;;;21.27;71.70;99988.09;;;;-64
2021/07/14 12:28:28;;;;;;;2.93;1.61;;;;;;;21.28;71.76;99982.03;;;;-64
2021/07/14 12:31:28;;;;;;;1.74;1.64;;;;;;;21.29;71.75;99979.19;;;;-59
2021/07/14 12:34:28;;;;;;;1.89;1.70;;;;;;;21.29;71.81;99975.59;;;;-59
2021/07/14 12:37:28;;;;;;;2.46;1.54;;;;;;;21.30;71.83;99981.20;;;;-58
2021/07/14 12:40:28;;;;;;;1.75;1.60;;;;;;;21.32;71.87;99981.45;;;;-49
2021/07/14 12:43:28;;;;;;;5.33;1.65;;;;;;;21.31;71.78;99977.45;;;;-58
2021/07/14 12:46:28;;;;;;;5.67;1.69;;;;;;;21.33;71.73;99974.89;;;;-51
2021/07/14 12:49:28;;;;;;;2.19;1.80;;;;;;;21.35;71.88;99968.19;;;;-55
2021/07/14 12:52:28;;;;;;;3.01;1.60;;;;;;;21.36;71.85;99964.45;;;;-55
2021/07/14 12:55:28;;;;;;;3.59;1.79;;;;;;;21.37;71.86;99966.14;;;;-67
2021/07/14 12:58:29;;;;;;;2.99;1.48;;;;;;;21.38;71.88;99961.02;;;;-58
2021/07/14 13:01:28;;;;;;;2.16;1.51;;;;;;;21.38;71.92;99956.28;;;;-63
2021/07/14 13:04:28;;;;;;;3.74;1.79;;;;;;;21.37;71.71;99949.04;;;;-61
2021/07/14 13:07:28;;;;;;;3.15;1.69;;;;;;;21.39;71.76;99948.19;;;;-59
2021/07/14 13:10:28;;;;;;;3.00;1.66;;;;;;;21.39;71.79;99948.75;;;;-54
2021/07/14 13:13:28;;;;;;;3.33;1.68;;;;;;;21.39;71.84;99952.66;;;;-57
2021/07/14 13:16:28;;;;;;;2.39;1.66;;;;;;;21.40;71.79;99949.73;;;;-50
2021/07/14 13:19:30;;;;;;;3.03;1.75;;;;;;;21.40;71.84;99950.63;;;;-51
2021/07/14 13:22:28;;;;;;;2.01;1.61;;;;;;;21.41;71.77;99955.02;;;;-52
2021/07/14 13:25:28;;;;;;;2.73;1.58;;;;;;;21.42;71.82;99954.72;;;;-49
2021/07/14 13:28:28;;;;;;;3.83;1.70;;;;;;;21.43;71.75;99959.34;;;;-50
2021/07/14 13:31:28;;;;;;;2.11;1.68;;;;;;;21.42;71.79;99959.69;;;;-50
2021/07/14 13:34:28;;;;;;;2.19;1.70;;;;;;;21.44;71.79;99966.95;;;;-50
2021/07/14 13:37:28;;;;;;;2.39;1.63;;;;;;;21.44;71.72;99963.69;;;;-52
2021/07/14 13:40:28;;;;;;;2.60;1.61;;;;;;;21.44;71.90;99961.30;;;;-55
2021/07/14 13:43:28;;;;;;;3.19;1.62;;;;;;;21.45;71.81;99958.92;;;;-51
2021/07/14 13:46:28;;;;;;;5.67;2.11;;;;;;;21.46;71.78;99959.41;;;;-61
2021/07/14 13:49:29;;;;;;;2.63;1.58;;;;;;;21.46;71.66;99954.02;;;;-61
2021/07/14 13:52:28;;;;;;;2.00;1.59;;;;;;;21.43;71.82;99955.42;;;;-62
2021/07/14 13:55:28;;;;;;;2.30;1.59;;;;;;;21.44;71.74;99956.98;;;;-61
2021/07/14 13:58:28;;;;;;;2.35;1.61;;;;;;;21.42;71.70;99958.06;;;;-53
2021/07/14 14:01:28;;;;;;;5.96;1.75;;;;;;;21.43;71.61;99963.50;;;;-53
2021/07/14 14:04:28;;;;;;;2.91;1.67;;;;;;;21.43;71.61;99954.28;;;;-51
2021/07/14 14:07:28;;;;;;;3.43;1.65;;;;;;;21.45;71.73;99951.67;;;;-52
2021/07/14 14:10:28;;;;;;;4.05;1.64;;;;;;;21.45;71.78;99946.22;;;;-51
2021/07/14 14:13:30;;;;;;;4.27;1.67;;;;;;;21.44;71.53;99939.29;;;;-52
2021/07/14 14:16:28;;;;;;;2.07;1.61;;;;;;;21.45;71.66;99934.47;;;;-52
2021/07/14 14:19:28;;;;;;;2.13;1.50;;;;;;;21.43;71.60;99941.42;;;;-52
2021/07/14 14:22:28;;;;;;;2.50;1.59;;;;;;;21.43;71.59;99951.28;;;;-56
2021/07/14 14:25:29;;;;;;;2.29;1.57;;;;;;;21.42;71.66;99951.53;;;;-56
2021/07/14 14:28:28;;;;;;;2.22;1.65;;;;;;;21.42;71.52;99940.59;;;;-53
2021/07/14 14:31:28;;;;;;;5.55;1.77;;;;;;;21.42;71.53;99950.47;;;;-53
2021/07/14 14:34:28;;;;;;;2.21;1.53;;;;;;;21.41;71.48;99952.98;;;;-53
2021/07/14 14:37:28;;;;;;;4.09;1.49;;;;;;;21.40;71.47;99953.48;;;;-53
2021/07/14 14:40:29;;;;;;;2.03;1.54;;;;;;;21.39;71.42;99954.30;;;;-53
2021/07/14 14:43:28;;;;;;;3.89;1.70;;;;;;;21.40;71.37;99955.13;;;;-53
2021/07/14 14:46:28;;;;;;;1.64;1.51;;;;;;;21.40;71.32;99959.11;;;;-53
2021/07/14 14:49:28;;;;;;;2.43;1.62;;;;;;;21.39;71.35;99964.56;;;;-53
2021/07/14 14:52:28;;;;;;;1.89;1.53;;;;;;;21.38;71.36;99965.80;;;;-54
2021/07/14 14:55:28;;;;;;;1.68;1.52;;;;;;;21.39;71.34;99959.52;;;;-53
2021/07/14 14:58:30;;;;;;;3.27;1.59;;;;;;;21.38;71.25;99957.41;;;;-52
2021/07/14 15:01:28;;;;;;;1.71;1.61;;;;;;;21.38;71.28;99956.94;;;;-52
2021/07/14 15:04:28;;;;;;;2.31;1.50;;;;;;;21.37;71.19;99959.20;;;;-53
2021/07/14 15:07:28;;;;;;;1.85;1.60;;;;;;;21.36;71.28;99957.77;;;;-53
2021/07/14 15:10:31;;;;;;;1.73;1.42;;;;;;;21.36;71.30;99959.48;;;;-52
2021/07/14 15:13:28;;;;;;;1.90;1.50;;;;;;;21.36;71.14;99949.94;;;;-53
2021/07/14 15:16:28;;;;;;;2.47;1.64;;;;;;;21.35;71.27;99944.98;;;;-53
2021/07/14 15:19:28;;;;;;;3.26;1.70;;;;;;;21.35;71.31;99942.19;;;;-51
2021/07/14 15:22:28;;;;;;;2.21;1.53;;;;;;;21.37;71.31;99936.06;;;;-56
2021/07/14 15:28:38;;;;;;;3.84;1.67;;;;;;;21.38;71.33;99938.67;;;;-52
2021/07/14 15:28:40;;;;;;;2.30;1.50;;;;;;;21.38;71.42;99943.31;;;;-58
2021/07/14 15:31:28;;;;;;;2.87;1.60;;;;;;;21.39;71.71;99943.86;;;;-59
2021/07/14 15:34:29;;;;;;;3.19;1.65;;;;;;;21.41;71.61;99954.45;;;;-53
2021/07/14 15:37:28;;;;;;;2.22;1.63;;;;;;;21.42;71.66;99951.62;;;;-58
2021/07/14 15:40:28;;;;;;;3.97;1.75;;;;;;;21.43;71.55;99953.31;;;;-66
2021/07/14 15:43:28;;;;;;;6.36;1.67;;;;;;;21.44;71.67;99956.42;;;;-57
2021/07/14 15:46:28;;;;;;;4.43;1.78;;;;;;;21.45;71.66;99954.04;;;;-57
2021/07/14 15:49:28;;;;;;;5.00;1.59;;;;;;;21.44;71.66;99951.03;;;;-59
2021/07/14 15:52:28;;;;;;;4.51;1.69;;;;;;;21.45;71.71;99948.97;;;;-58
2021/07/14 15:55:28;;;;;;;2.11;1.50;;;;;;;21.45;71.63;99943.27;;;;-60
2021/07/14 15:58:28;;;;;;;3.63;1.61;;;;;;;21.46;71.76;99931.20;;;;-58
2021/07/14 16:01:28;;;;;;;3.96;1.72;;;;;;;21.47;71.76;99926.53;;;;-68
2021/07/14 16:04:28;;;;;;;3.55;1.57;;;;;;;21.48;71.85;99936.33;;;;-60
2021/07/14 16:07:28;;;;;;;2.72;1.69;;;;;;;21.48;71.79;99941.77;;;;-67
2021/07/14 16:10:28;;;;;;;3.61;1.70;;;;;;;21.50;71.82;99946.63;;;;-56
2021/07/14 16:13:28;;;;;;;4.01;1.63;;;;;;;21.50;71.74;99945.44;;;;-55
2021/07/14 16:16:28;;;;;;;2.81;1.62;;;;;;;21.51;71.80;99948.36;;;;-54
2021/07/14 16:19:28;;;;;;;3.46;1.79;;;;;;;21.51;71.65;99942.33;;;;-54
2021/07/14 16:22:30;;;;;;;4.30;1.80;;;;;;;21.51;71.72;99942.73;;;;-55
2021/07/14 16:25:30;;;;;;;2.67;1.63;;;;;;;21.52;71.72;99943.77;;;;-53
2021/07/14 16:28:28;;;;;;;3.44;1.61;;;;;;;21.51;71.66;99953.15;;;;-53
2021/07/14 16:31:28;;;;;;;3.63;1.55;;;;;;;21.50;71.66;99944.38;;;;-53
2021/07/14 16:34:28;;;;;;;2.39;1.55;;;;;;;21.50;71.62;99941.84;;;;-53
2021/07/14 16:37:28;;;;;;;3.96;1.80;;;;;;;21.49;71.61;99938.67;;;;-53
2021/07/14 16:40:28;;;;;;;4.51;1.54;;;;;;;21.47;71.61;99933.95;;;;-52
2021/07/14 16:43:28;;;;;;;2.62;1.67;;;;;;;21.47;71.50;99943.00;;;;-53
2021/07/14 16:46:28;;;;;;;2.21;1.59;;;;;;;21.46;71.51;99939.66;;;;-53
2021/07/14 16:49:28;;;;;;;2.13;1.53;;;;;;;21.45;71.52;99956.23;;;;-53
2021/07/14 16:52:28;;;;;;;2.95;1.60;;;;;;;21.44;71.52;99955.35;;;;-53
2021/07/14 16:55:28;;;;;;;4.03;1.59;;;;;;;21.44;71.50;99959.19;;;;-53
2021/07/14 16:58:28;;;;;;;2.55;1.63;;;;;;;21.44;71.41;99962.87;;;;-53
2021/07/14 17:01:28;;;;;;;1.91;1.47;;;;;;;21.42;71.37;99956.10;;;;-53